LIMZ/CUF METAR and TAF weather

Enter ICAO airport designator
Station Type Date Time Source
LIMZ METAR 2019/02/20 06:50 UTC NOAA

LIMZ 200650Z 22003KT CAVOK M01/M02 Q1023


Station Type Date Time Source
LIMZ Decoded METAR 2019/02/20 06:50 UTC NOAA

Cuneo / Levaldigi, Italy (LIMZ) 44-32-47N 007-37-20E
Feb 20, 2019 - 01:50 AM EST / 2019.02.20 0650 UTC
Wind: from the SW (220 degrees) at 3 MPH (3 KT):0
Visibility: greater than 7 mile(s):0
Temperature: 30 F (-1 C)
Dew Point: 28 F (-2 C)
Relative Humidity: 92%
Pressure (altimeter): 30.21 in. Hg (1023 hPa)
ob: LIMZ 200650Z 22003KT CAVOK M01/M02 Q1023
cycle: 7

Station Type Date Time Source
LIMZ TAF 2019/02/20 06:54 UTC NOAA

TAF LIMZ 200500Z 2006/2106 VRB05KT CAVOK


Example: see airport list